CES2275 ZLXY-ZLYL
Flight info
| Callsign | CES2275 |
|---|---|
| Flight time | N/A |
| Altitude | 22600 |
| Route | WJC W193 YLX |
| Aircraft | A20N/M-SDE2E3FGILRWXY/LB2 |
Departure
| Time | 2026-05-01 15:03 |
|---|---|
| Airport | Xi'an Xianyang International Airport (ZLXY) |
Arrival
| Time | N/A |
|---|---|
| Airport | Yulin Yuyang Airport (ZLYL) |
| Time | Latitude | Longitude | Altitude | Speed | Heading |
|---|---|---|---|---|---|
| 2026-05-01 14:45 | 34.43777 | 108.76487 | 1575 ft | 0 kts | 139° |
| 2026-05-01 14:55 | 34.43772 | 108.76492 | 1575 ft | 2 kts | 139° |
| 2026-05-01 14:55 | 34.43751 | 108.76502 | 1575 ft | 3 kts | 181° |
| 2026-05-01 14:56 | 34.43721 | 108.76489 | 1575 ft | 5 kts | 205° |
| 2026-05-01 14:56 | 34.43692 | 108.76456 | 1575 ft | 6 kts | 217° |
| 2026-05-01 14:56 | 34.43650 | 108.76469 | 1575 ft | 8 kts | 149° |
| 2026-05-01 14:56 | 34.43596 | 108.76521 | 1575 ft | 11 kts | 136° |
| 2026-05-01 14:57 | 34.43520 | 108.76569 | 1575 ft | 13 kts | 191° |
| 2026-05-01 14:57 | 34.43383 | 108.76400 | 1575 ft | 15 kts | 230° |
| 2026-05-01 14:57 | 34.43308 | 108.76296 | 1575 ft | 17 kts | 229° |
| 2026-05-01 14:58 | 34.43225 | 108.76182 | 1575 ft | 18 kts | 229° |
| 2026-05-01 14:58 | 34.43140 | 108.76066 | 1575 ft | 18 kts | 231° |
| 2026-05-01 14:58 | 34.43057 | 108.75951 | 1575 ft | 18 kts | 228° |
| 2026-05-01 14:58 | 34.42974 | 108.75838 | 1575 ft | 17 kts | 229° |
| 2026-05-01 14:59 | 34.42893 | 108.75726 | 1575 ft | 17 kts | 229° |
| 2026-05-01 14:59 | 34.42813 | 108.75613 | 1575 ft | 17 kts | 227° |
| 2026-05-01 14:59 | 34.42730 | 108.75504 | 1575 ft | 17 kts | 230° |
| 2026-05-01 14:59 | 34.42651 | 108.75391 | 1575 ft | 17 kts | 229° |
| 2026-05-01 15:00 | 34.42493 | 108.75172 | 1575 ft | 17 kts | 229° |
| 2026-05-01 15:00 | 34.42412 | 108.75062 | 1575 ft | 17 kts | 229° |
| 2026-05-01 15:00 | 34.42346 | 108.74971 | 1575 ft | 8 kts | 229° |
| 2026-05-01 15:01 | 34.42292 | 108.74935 | 1575 ft | 9 kts | 172° |
| 2026-05-01 15:01 | 34.42232 | 108.74983 | 1575 ft | 10 kts | 140° |
| 2026-05-01 15:01 | 34.42171 | 108.75046 | 1575 ft | 11 kts | 139° |
| 2026-05-01 15:01 | 34.42131 | 108.75130 | 1575 ft | 12 kts | 82° |
| 2026-05-01 15:02 | 34.42177 | 108.75218 | 1575 ft | 13 kts | 51° |
| 2026-05-01 15:02 | 34.42200 | 108.75252 | 1575 ft | 19 kts | 49° |
| 2026-05-01 15:02 | 34.42796 | 108.76073 | 1575 ft | 130 kts | 48° |
| 2026-05-01 15:02 | 34.43510 | 108.77055 | 1674 ft | 170 kts | 49° |
| 2026-05-01 15:03 | 34.44284 | 108.78146 | 2276 ft | 171 kts | 49° |
| 2026-05-01 15:03 | 34.45037 | 108.79240 | 2888 ft | 170 kts | 51° |
| 2026-05-01 15:03 | 34.45746 | 108.80386 | 3415 ft | 175 kts | 53° |
| 2026-05-01 15:03 | 34.46506 | 108.81613 | 3797 ft | 190 kts | 51° |
| 2026-05-01 15:04 | 34.47365 | 108.82913 | 4182 ft | 207 kts | 49° |
| 2026-05-01 15:04 | 34.48340 | 108.84319 | 4502 ft | 230 kts | 48° |
| 2026-05-01 15:04 | 34.49427 | 108.85847 | 4948 ft | 248 kts | 47° |
| 2026-05-01 15:04 | 34.50587 | 108.87456 | 5421 ft | 266 kts | 47° |
| 2026-05-01 15:05 | 34.51841 | 108.89194 | 6022 ft | 279 kts | 47° |
| 2026-05-01 15:05 | 34.53124 | 108.90974 | 6845 ft | 282 kts | 47° |
| 2026-05-01 15:05 | 34.54406 | 108.92751 | 7695 ft | 285 kts | 47° |
| 2026-05-01 15:05 | 34.55699 | 108.94542 | 8516 ft | 287 kts | 46° |
| 2026-05-01 15:06 | 34.57028 | 108.96384 | 9340 ft | 290 kts | 47° |
| 2026-05-01 15:06 | 34.58341 | 108.98207 | 10137 ft | 293 kts | 46° |
| 2026-05-01 15:06 | 34.59695 | 109.00085 | 10720 ft | 304 kts | 47° |
| 2026-05-01 15:06 | 34.61292 | 109.01855 | 11072 ft | 318 kts | 27° |
| 2026-05-01 15:07 | 34.63402 | 109.02747 | 11405 ft | 331 kts | 4° |
| 2026-05-01 15:07 | 34.65749 | 109.02593 | 11770 ft | 343 kts | 348° |
| 2026-05-01 15:07 | 34.68132 | 109.02103 | 12377 ft | 350 kts | 349° |
| 2026-05-01 15:07 | 34.70546 | 109.01637 | 13068 ft | 354 kts | 349° |
| 2026-05-01 15:08 | 34.72966 | 109.01182 | 13750 ft | 358 kts | 349° |
| 2026-05-01 15:08 | 34.75458 | 109.00719 | 14402 ft | 362 kts | 349° |
| 2026-05-01 15:08 | 34.77951 | 109.00259 | 15011 ft | 367 kts | 348° |
| 2026-05-01 15:08 | 34.80512 | 108.99914 | 15609 ft | 375 kts | 355° |
| 2026-05-01 15:09 | 34.83120 | 109.00119 | 16193 ft | 384 kts | 6° |
| 2026-05-01 15:09 | 34.85729 | 109.00893 | 16750 ft | 391 kts | 13° |
| 2026-05-01 15:09 | 34.88369 | 109.01920 | 17318 ft | 397 kts | 14° |
| 2026-05-01 15:09 | 34.90989 | 109.02975 | 17805 ft | 403 kts | 14° |
| 2026-05-01 15:10 | 34.93668 | 109.04050 | 18190 ft | 412 kts | 15° |
| 2026-05-01 15:10 | 34.99227 | 109.06270 | 19136 ft | 422 kts | 14° |
| 2026-05-01 15:10 | 35.01991 | 109.07368 | 19665 ft | 425 kts | 14° |
| 2026-05-01 15:11 | 35.04829 | 109.08491 | 20217 ft | 426 kts | 14° |
| 2026-05-01 15:11 | 35.10506 | 109.10740 | 21151 ft | 433 kts | 14° |
| 2026-05-01 15:11 | 35.13347 | 109.11866 | 21608 ft | 435 kts | 14° |
| 2026-05-01 15:12 | 35.16248 | 109.13020 | 22050 ft | 438 kts | 13° |
| 2026-05-01 15:12 | 35.22066 | 109.15331 | 22550 ft | 443 kts | 13° |
| 2026-05-01 15:12 | 35.25012 | 109.16499 | 22554 ft | 442 kts | 13° |
| 2026-05-01 15:13 | 35.33747 | 109.19981 | 22554 ft | 442 kts | 13° |
| 2026-05-01 15:14 | 35.39612 | 109.22317 | 22551 ft | 443 kts | 13° |
| 2026-05-01 15:14 | 35.42522 | 109.23479 | 22547 ft | 443 kts | 13° |
| 2026-05-01 15:14 | 35.48403 | 109.25833 | 22543 ft | 443 kts | 13° |
| 2026-05-01 15:15 | 35.54293 | 109.28192 | 22542 ft | 446 kts | 13° |
| 2026-05-01 15:15 | 35.60185 | 109.30556 | 22544 ft | 444 kts | 13° |
| 2026-05-01 15:16 | 35.66010 | 109.32896 | 22543 ft | 444 kts | 13° |
| 2026-05-01 15:16 | 35.71907 | 109.35272 | 22544 ft | 443 kts | 13° |
| 2026-05-01 15:17 | 35.77789 | 109.37400 | 22545 ft | 441 kts | 8° |
| 2026-05-01 15:18 | 35.86825 | 109.39204 | 22550 ft | 438 kts | 2° |
| 2026-05-01 15:18 | 35.89883 | 109.39707 | 22552 ft | 438 kts | 2° |
| 2026-05-01 15:19 | 35.98935 | 109.41210 | 22556 ft | 439 kts | 2° |
| 2026-05-01 15:19 | 36.04975 | 109.42226 | 22559 ft | 439 kts | 2° |
| 2026-05-01 15:19 | 36.08019 | 109.42736 | 22561 ft | 439 kts | 2° |
| 2026-05-01 15:20 | 36.14069 | 109.43760 | 22568 ft | 437 kts | 2° |
| 2026-05-01 15:20 | 36.17065 | 109.44267 | 22570 ft | 437 kts | 2° |
| 2026-05-01 15:20 | 36.20065 | 109.44774 | 22576 ft | 437 kts | 2° |
| 2026-05-01 15:21 | 36.23080 | 109.45283 | 22571 ft | 437 kts | 2° |
| 2026-05-01 15:21 | 36.26104 | 109.45796 | 22569 ft | 438 kts | 2° |
| 2026-05-01 15:21 | 36.29128 | 109.46308 | 22575 ft | 438 kts | 2° |
| 2026-05-01 15:21 | 36.32134 | 109.46819 | 22577 ft | 438 kts | 3° |
| 2026-05-01 15:22 | 36.38179 | 109.47846 | 22573 ft | 437 kts | 3° |
| 2026-05-01 15:22 | 36.41202 | 109.48325 | 22570 ft | 436 kts | 1° |
| 2026-05-01 15:22 | 36.44195 | 109.48608 | 22573 ft | 435 kts | 358° |
| 2026-05-01 15:23 | 36.47215 | 109.48772 | 22580 ft | 434 kts | 357° |
| 2026-05-01 15:23 | 36.50252 | 109.48912 | 22578 ft | 433 kts | 357° |
| 2026-05-01 15:23 | 36.53267 | 109.49045 | 22580 ft | 433 kts | 357° |
| 2026-05-01 15:23 | 36.56267 | 109.49179 | 22577 ft | 432 kts | 357° |
| 2026-05-01 15:24 | 36.59266 | 109.49318 | 22576 ft | 433 kts | 357° |
| 2026-05-01 15:24 | 36.62271 | 109.49460 | 22581 ft | 432 kts | 357° |
| 2026-05-01 15:24 | 36.65255 | 109.49597 | 22578 ft | 433 kts | 358° |
| 2026-05-01 15:24 | 36.68259 | 109.49736 | 22580 ft | 432 kts | 358° |
| 2026-05-01 15:25 | 36.71298 | 109.49882 | 22574 ft | 433 kts | 358° |
| 2026-05-01 15:25 | 36.74287 | 109.50024 | 22568 ft | 432 kts | 358° |
| 2026-05-01 15:25 | 36.77276 | 109.50165 | 22566 ft | 432 kts | 358° |
| 2026-05-01 15:25 | 36.80309 | 109.50308 | 22568 ft | 432 kts | 358° |
| 2026-05-01 15:26 | 36.83300 | 109.50451 | 22571 ft | 432 kts | 358° |
| 2026-05-01 15:26 | 36.86274 | 109.50592 | 22574 ft | 431 kts | 358° |
| 2026-05-01 15:26 | 36.89297 | 109.50736 | 22576 ft | 432 kts | 358° |
| 2026-05-01 15:26 | 36.92289 | 109.50879 | 22565 ft | 431 kts | 358° |
| 2026-05-01 15:27 | 36.95272 | 109.51022 | 22563 ft | 431 kts | 358° |
| 2026-05-01 15:27 | 36.98267 | 109.51164 | 22569 ft | 431 kts | 358° |
| 2026-05-01 15:27 | 37.01261 | 109.51309 | 22576 ft | 430 kts | 358° |
| 2026-05-01 15:28 | 37.07281 | 109.51594 | 22563 ft | 431 kts | 358° |
| 2026-05-01 15:28 | 37.10255 | 109.51737 | 22567 ft | 431 kts | 358° |
| 2026-05-01 15:28 | 37.13259 | 109.51880 | 22562 ft | 432 kts | 358° |
| 2026-05-01 15:29 | 37.19265 | 109.52168 | 22558 ft | 432 kts | 358° |
| 2026-05-01 15:29 | 37.22246 | 109.52312 | 22560 ft | 432 kts | 358° |
| 2026-05-01 15:29 | 37.28246 | 109.52599 | 22560 ft | 431 kts | 358° |
| 2026-05-01 15:30 | 37.33252 | 109.52841 | 22557 ft | 431 kts | 359° |
| 2026-05-01 15:31 | 37.46195 | 109.53464 | 22095 ft | 428 kts | 358° |
| 2026-05-01 15:31 | 37.52141 | 109.53751 | 21631 ft | 424 kts | 359° |
| 2026-05-01 15:32 | 37.58000 | 109.54033 | 21162 ft | 421 kts | 360° |
| 2026-05-01 15:32 | 37.63811 | 109.54314 | 20529 ft | 416 kts | 359° |
| 2026-05-01 15:33 | 37.72393 | 109.54733 | 19054 ft | 408 kts | 360° |
| 2026-05-01 15:34 | 37.80831 | 109.55145 | 17446 ft | 400 kts | 359° |